sensor_id;sensor_type;location;lat;lon;timestamp;pressure;altitude;pressure_sealevel;temperature;humidity
8699;BME280;4386;51.236;6.742;2022-12-18T00:00:14;102416.00;;;-1.25;70.83
8699;BME280;4386;51.236;6.742;2022-12-18T00:01:19;102417.72;;;-1.25;71.30
8699;BME280;4386;51.236;6.742;2022-12-18T00:02:21;102417.72;;;-1.25;70.93
8699;BME280;4386;51.236;6.742;2022-12-18T00:03:24;102421.19;;;-1.26;70.88
8699;BME280;4386;51.236;6.742;2022-12-18T00:04:27;102427.25;;;-1.27;70.81
8699;BME280;4386;51.236;6.742;2022-12-18T00:05:29;102423.81;;;-1.28;71.06
8699;BME280;4386;51.236;6.742;2022-12-18T00:06:32;102425.53;;;-1.28;70.82
8699;BME280;4386;51.236;6.742;2022-12-18T00:07:35;102422.94;;;-1.28;71.11
8699;BME280;4386;51.236;6.742;2022-12-18T00:08:37;102427.25;;;-1.27;70.93
8699;BME280;4386;51.236;6.742;2022-12-18T00:09:41;102422.06;;;-1.29;70.97
8699;BME280;4386;51.236;6.742;2022-12-18T00:10:43;102431.59;;;-1.29;70.86
8699;BME280;4386;51.236;6.742;2022-12-18T00:11:45;102422.94;;;-1.30;70.99
8699;BME280;4386;51.236;6.742;2022-12-18T00:12:47;102422.06;;;-1.30;71.16
8699;BME280;4386;51.236;6.742;2022-12-18T00:13:50;102422.94;;;-1.31;70.92
8699;BME280;4386;51.236;6.742;2022-12-18T00:14:51;102428.16;;;-1.31;71.14
8699;BME280;4386;51.236;6.742;2022-12-18T00:15:54;102429.84;;;-1.30;71.12
8699;BME280;4386;51.236;6.742;2022-12-18T00:16:57;102429.00;;;-1.31;70.67
8699;BME280;4386;51.236;6.742;2022-12-18T00:18:02;102429.00;;;-1.31;70.85
8699;BME280;4386;51.236;6.742;2022-12-18T00:19:05;102429.00;;;-1.32;70.92
8699;BME280;4386;51.236;6.742;2022-12-18T00:20:09;102433.34;;;-1.31;71.23
8699;BME280;4386;51.236;6.742;2022-12-18T00:21:13;102434.19;;;-1.31;71.34
8699;BME280;4386;51.236;6.742;2022-12-18T00:22:16;102435.06;;;-1.33;70.81
8699;BME280;4386;51.236;6.742;2022-12-18T00:23:20;102431.59;;;-1.32;70.82
8699;BME280;4386;51.236;6.742;2022-12-18T00:24:21;102424.66;;;-1.33;71.15
8699;BME280;4386;51.236;6.742;2022-12-18T00:25:25;102434.22;;;-1.32;70.88
8699;BME280;4386;51.236;6.742;2022-12-18T00:26:28;102430.75;;;-1.31;70.96
8699;BME280;4386;51.236;6.742;2022-12-18T00:27:31;102429.00;;;-1.31;71.10
8699;BME280;4386;51.236;6.742;2022-12-18T00:28:34;102428.16;;;-1.31;70.72
8699;BME280;4386;51.236;6.742;2022-12-18T00:29:36;102433.34;;;-1.31;71.00
8699;BME280;4386;51.236;6.742;2022-12-18T00:30:39;102425.53;;;-1.31;70.68
8699;BME280;4386;51.236;6.742;2022-12-18T00:31:41;102420.34;;;-1.33;70.84
8699;BME280;4386;51.236;6.742;2022-12-18T00:32:44;102422.06;;;-1.33;71.00
8699;BME280;4386;51.236;6.742;2022-12-18T00:33:45;102431.59;;;-1.32;70.56
8699;BME280;4386;51.236;6.742;2022-12-18T00:34:53;102427.25;;;-1.33;70.84
8699;BME280;4386;51.236;6.742;2022-12-18T00:36:00;102429.00;;;-1.34;71.09
8699;BME280;4386;51.236;6.742;2022-12-18T00:37:02;102432.47;;;-1.33;70.64
8699;BME280;4386;51.236;6.742;2022-12-18T00:38:05;102437.69;;;-1.35;70.79
8699;BME280;4386;51.236;6.742;2022-12-18T00:39:07;102429.88;;;-1.33;70.53
8699;BME280;4386;51.236;6.742;2022-12-18T00:40:11;102442.00;;;-1.34;71.11
8699;BME280;4386;51.236;6.742;2022-12-18T00:41:16;102438.56;;;-1.34;71.16
8699;BME280;4386;51.236;6.742;2022-12-18T00:42:40;102428.16;;;-1.34;70.59
8699;BME280;4386;51.236;6.742;2022-12-18T00:43:56;102433.34;;;-1.34;70.70
8699;BME280;4386;51.236;6.742;2022-12-18T00:44:58;102427.28;;;-1.36;70.85
8699;BME280;4386;51.236;6.742;2022-12-18T00:46:00;102424.66;;;-1.36;70.94
8699;BME280;4386;51.236;6.742;2022-12-18T00:47:02;102422.94;;;-1.37;70.91
8699;BME280;4386;51.236;6.742;2022-12-18T00:48:05;102415.13;;;-1.37;70.81
8699;BME280;4386;51.236;6.742;2022-12-18T00:49:07;102418.59;;;-1.37;70.79
8699;BME280;4386;51.236;6.742;2022-12-18T00:50:09;102413.44;;;-1.38;70.84
8699;BME280;4386;51.236;6.742;2022-12-18T00:51:12;102418.59;;;-1.40;71.06
8699;BME280;4386;51.236;6.742;2022-12-18T00:52:13;102415.16;;;-1.39;71.01
8699;BME280;4386;51.236;6.742;2022-12-18T00:53:16;102414.28;;;-1.39;70.78
8699;BME280;4386;51.236;6.742;2022-12-18T00:54:18;102424.69;;;-1.39;70.50
8699;BME280;4386;51.236;6.742;2022-12-18T00:55:20;102429.03;;;-1.38;70.79
8699;BME280;4386;51.236;6.742;2022-12-18T00:56:24;102420.34;;;-1.39;70.73
8699;BME280;4386;51.236;6.742;2022-12-18T00:57:26;102429.00;;;-1.40;70.48
8699;BME280;4386;51.236;6.742;2022-12-18T00:58:28;102422.94;;;-1.40;70.82
8699;BME280;4386;51.236;6.742;2022-12-18T00:59:30;102422.09;;;-1.41;70.78
8699;BME280;4386;51.236;6.742;2022-12-18T01:00:32;102415.16;;;-1.42;70.98
8699;BME280;4386;51.236;6.742;2022-12-18T01:01:35;102424.69;;;-1.42;70.72
8699;BME280;4386;51.236;6.742;2022-12-18T01:02:37;102419.50;;;-1.42;70.87
8699;BME280;4386;51.236;6.742;2022-12-18T01:03:41;102422.06;;;-1.44;70.62
8699;BME280;4386;51.236;6.742;2022-12-18T01:04:43;102416.88;;;-1.44;70.59
8699;BME280;4386;51.236;6.742;2022-12-18T01:05:45;102422.09;;;-1.42;70.70
8699;BME280;4386;51.236;6.742;2022-12-18T01:06:47;102416.88;;;-1.44;70.63
8699;BME280;4386;51.236;6.742;2022-12-18T01:07:49;102417.75;;;-1.43;71.09
8699;BME280;4386;51.236;6.742;2022-12-18T01:08:51;102409.97;;;-1.42;70.77
8699;BME280;4386;51.236;6.742;2022-12-18T01:09:54;102409.09;;;-1.42;70.70
8699;BME280;4386;51.236;6.742;2022-12-18T01:10:55;102405.63;;;-1.44;70.82
8699;BME280;4386;51.236;6.742;2022-12-18T01:11:59;102408.25;;;-1.44;70.40
8699;BME280;4386;51.236;6.742;2022-12-18T01:13:00;102410.84;;;-1.44;70.98
8699;BME280;4386;51.236;6.742;2022-12-18T01:14:04;102416.03;;;-1.44;70.88
8699;BME280;4386;51.236;6.742;2022-12-18T01:15:06;102416.88;;;-1.44;70.77
8699;BME280;4386;51.236;6.742;2022-12-18T01:16:11;102413.44;;;-1.44;70.75
8699;BME280;4386;51.236;6.742;2022-12-18T01:17:13;102423.84;;;-1.44;70.67
8699;BME280;4386;51.236;6.742;2022-12-18T01:18:16;102416.88;;;-1.44;70.66
8699;BME280;4386;51.236;6.742;2022-12-18T01:19:18;102423.84;;;-1.44;70.72
8699;BME280;4386;51.236;6.742;2022-12-18T01:20:20;102412.56;;;-1.45;70.71
8699;BME280;4386;51.236;6.742;2022-12-18T01:21:23;102411.69;;;-1.45;70.54
8699;BME280;4386;51.236;6.742;2022-12-18T01:22:25;102418.63;;;-1.46;70.81
8699;BME280;4386;51.236;6.742;2022-12-18T01:23:27;102415.16;;;-1.45;70.44
8699;BME280;4386;51.236;6.742;2022-12-18T01:24:30;102412.56;;;-1.45;70.62
8699;BME280;4386;51.236;6.742;2022-12-18T01:25:31;102414.28;;;-1.45;70.54
8699;BME280;4386;51.236;6.742;2022-12-18T01:26:34;102420.34;;;-1.43;70.81
8699;BME280;4386;51.236;6.742;2022-12-18T01:27:36;102415.16;;;-1.45;70.35
8699;BME280;4386;51.236;6.742;2022-12-18T01:28:39;102421.25;;;-1.44;70.61
8699;BME280;4386;51.236;6.742;2022-12-18T01:29:41;102429.91;;;-1.45;70.72
8699;BME280;4386;51.236;6.742;2022-12-18T01:30:44;102422.94;;;-1.46;70.67
8699;BME280;4386;51.236;6.742;2022-12-18T01:34:08;102415.16;;;-1.46;70.40
8699;BME280;4386;51.236;6.742;2022-12-18T01:35:11;102413.44;;;-1.49;70.51
8699;BME280;4386;51.236;6.742;2022-12-18T01:36:17;102416.03;;;-1.50;70.63
8699;BME280;4386;51.236;6.742;2022-12-18T01:37:20;102412.56;;;-1.49;70.61
8699;BME280;4386;51.236;6.742;2022-12-18T01:38:23;102413.41;;;-1.50;70.80
8699;BME280;4386;51.236;6.742;2022-12-18T01:39:36;102416.03;;;-1.50;70.43
8699;BME280;4386;51.236;6.742;2022-12-18T01:40:38;102411.72;;;-1.51;70.44
8699;BME280;4386;51.236;6.742;2022-12-18T01:41:41;102412.59;;;-1.51;70.29
8699;BME280;4386;51.236;6.742;2022-12-18T01:43:11;102413.41;;;-1.50;70.57
8699;BME280;4386;51.236;6.742;2022-12-18T01:44:51;102407.38;;;-1.51;70.74
8699;BME280;4386;51.236;6.742;2022-12-18T01:45:54;102410.81;;;-1.50;70.44
8699;BME280;4386;51.236;6.742;2022-12-18T01:46:57;102416.03;;;-1.50;70.61
8699;BME280;4386;51.236;6.742;2022-12-18T01:48:00;102404.78;;;-1.52;70.44
8699;BME280;4386;51.236;6.742;2022-12-18T01:49:04;102407.38;;;-1.52;70.52
8699;BME280;4386;51.236;6.742;2022-12-18T01:50:09;102400.44;;;-1.53;70.71
8699;BME280;4386;51.236;6.742;2022-12-18T01:51:12;102407.38;;;-1.52;70.65
8699;BME280;4386;51.236;6.742;2022-12-18T01:52:15;102403.91;;;-1.51;70.69
8699;BME280;4386;51.236;6.742;2022-12-18T01:53:21;102403.91;;;-1.51;70.47
8699;BME280;4386;51.236;6.742;2022-12-18T01:54:23;102403.03;;;-1.52;70.48
8699;BME280;4386;51.236;6.742;2022-12-18T01:55:29;102406.50;;;-1.51;70.84
8699;BME280;4386;51.236;6.742;2022-12-18T01:56:33;102406.50;;;-1.51;70.78
8699;BME280;4386;51.236;6.742;2022-12-18T01:57:34;102416.88;;;-1.50;70.72
8699;BME280;4386;51.236;6.742;2022-12-18T01:58:45;102417.78;;;-1.51;70.76
8699;BME280;4386;51.236;6.742;2022-12-18T01:59:51;102422.97;;;-1.51;70.56
8699;BME280;4386;51.236;6.742;2022-12-18T02:00:54;102418.63;;;-1.52;70.91
8699;BME280;4386;51.236;6.742;2022-12-18T02:01:56;102411.69;;;-1.53;70.44
8699;BME280;4386;51.236;6.742;2022-12-18T02:02:59;102421.22;;;-1.53;70.50
8699;BME280;4386;51.236;6.742;2022-12-18T02:04:20;102421.22;;;-1.53;70.65
8699;BME280;4386;51.236;6.742;2022-12-18T02:05:29;102416.91;;;-1.54;70.52
8699;BME280;4386;51.236;6.742;2022-12-18T02:06:40;102419.50;;;-1.54;70.60
8699;BME280;4386;51.236;6.742;2022-12-18T02:07:45;102421.22;;;-1.57;70.71
8699;BME280;4386;51.236;6.742;2022-12-18T02:09:01;102417.78;;;-1.55;70.53
8699;BME280;4386;51.236;6.742;2022-12-18T02:10:06;102421.22;;;-1.57;70.67
8699;BME280;4386;51.236;6.742;2022-12-18T02:11:18;102421.22;;;-1.57;70.30
8699;BME280;4386;51.236;6.742;2022-12-18T02:12:24;102416.91;;;-1.56;70.41
8699;BME280;4386;51.236;6.742;2022-12-18T02:13:37;102418.63;;;-1.57;70.54
8699;BME280;4386;51.236;6.742;2022-12-18T02:14:46;102409.97;;;-1.57;70.79
8699;BME280;4386;51.236;6.742;2022-12-18T02:15:58;102411.72;;;-1.58;70.83
8699;BME280;4386;51.236;6.742;2022-12-18T02:17:04;102412.59;;;-1.59;70.66
8699;BME280;4386;51.236;6.742;2022-12-18T02:18:12;102417.78;;;-1.59;70.74
8699;BME280;4386;51.236;6.742;2022-12-18T02:19:37;102419.53;;;-1.58;70.62
8699;BME280;4386;51.236;6.742;2022-12-18T02:20:46;102421.22;;;-1.57;70.69
8699;BME280;4386;51.236;6.742;2022-12-18T02:21:55;102419.53;;;-1.58;70.69
8699;BME280;4386;51.236;6.742;2022-12-18T02:23:12;102419.53;;;-1.58;70.48
8699;BME280;4386;51.236;6.742;2022-12-18T02:24:29;102423.84;;;-1.58;70.43
8699;BME280;4386;51.236;6.742;2022-12-18T02:26:01;102419.53;;;-1.58;70.71
8699;BME280;4386;51.236;6.742;2022-12-18T02:27:07;102414.31;;;-1.58;70.78
8699;BME280;4386;51.236;6.742;2022-12-18T02:28:13;102419.53;;;-1.58;70.61
8699;BME280;4386;51.236;6.742;2022-12-18T02:29:18;102417.78;;;-1.59;70.93
8699;BME280;4386;51.236;6.742;2022-12-18T02:30:23;102412.59;;;-1.59;70.50
8699;BME280;4386;51.236;6.742;2022-12-18T02:31:38;102409.97;;;-1.59;70.40
8699;BME280;4386;51.236;6.742;2022-12-18T02:32:46;102402.19;;;-1.59;70.66
8699;BME280;4386;51.236;6.742;2022-12-18T02:33:54;102405.63;;;-1.60;70.51
8699;BME280;4386;51.236;6.742;2022-12-18T02:34:59;102398.72;;;-1.61;70.65
8699;BME280;4386;51.236;6.742;2022-12-18T02:36:05;102401.31;;;-1.59;70.72
8699;BME280;4386;51.236;6.742;2022-12-18T02:37:10;102400.44;;;-1.60;70.60
8699;BME280;4386;51.236;6.742;2022-12-18T02:38:14;102401.31;;;-1.59;70.47
8699;BME280;4386;51.236;6.742;2022-12-18T02:39:20;102394.38;;;-1.60;70.64
8699;BME280;4386;51.236;6.742;2022-12-18T02:40:24;102394.38;;;-1.59;70.70
8699;BME280;4386;51.236;6.742;2022-12-18T02:41:30;102400.47;;;-1.58;70.65
8699;BME280;4386;51.236;6.742;2022-12-18T02:42:32;102397.84;;;-1.58;70.68
8699;BME280;4386;51.236;6.742;2022-12-18T02:43:35;102399.59;;;-1.59;70.75
8699;BME280;4386;51.236;6.742;2022-12-18T02:44:42;102400.44;;;-1.60;70.87
8699;BME280;4386;51.236;6.742;2022-12-18T02:45:50;102402.19;;;-1.59;70.71
8699;BME280;4386;51.236;6.742;2022-12-18T02:46:53;102395.25;;;-1.58;71.04
8699;BME280;4386;51.236;6.742;2022-12-18T02:47:55;102396.13;;;-1.59;70.64
8699;BME280;4386;51.236;6.742;2022-12-18T02:49:17;102400.44;;;-1.60;70.84
8699;BME280;4386;51.236;6.742;2022-12-18T02:50:30;102402.19;;;-1.59;70.97
8699;BME280;4386;51.236;6.742;2022-12-18T02:51:42;102407.38;;;-1.59;70.44
8699;BME280;4386;51.236;6.742;2022-12-18T02:52:57;102406.50;;;-1.59;70.84
8699;BME280;4386;51.236;6.742;2022-12-18T02:54:05;102403.03;;;-1.60;70.48
8699;BME280;4386;51.236;6.742;2022-12-18T02:55:19;102400.47;;;-1.61;70.56
8699;BME280;4386;51.236;6.742;2022-12-18T02:56:26;102401.31;;;-1.59;70.85
8699;BME280;4386;51.236;6.742;2022-12-18T02:57:34;102404.78;;;-1.60;70.78
8699;BME280;4386;51.236;6.742;2022-12-18T02:58:44;102400.44;;;-1.60;70.73
8699;BME280;4386;51.236;6.742;2022-12-18T02:59:56;102398.72;;;-1.61;70.86
8699;BME280;4386;51.236;6.742;2022-12-18T03:01:07;102401.31;;;-1.59;70.67
8699;BME280;4386;51.236;6.742;2022-12-18T03:02:19;102402.16;;;-1.60;70.88
8699;BME280;4386;51.236;6.742;2022-12-18T03:03:26;102394.38;;;-1.59;70.95
8699;BME280;4386;51.236;6.742;2022-12-18T03:04:34;102390.91;;;-1.59;70.60
8699;BME280;4386;51.236;6.742;2022-12-18T03:05:41;102406.53;;;-1.58;70.96
8699;BME280;4386;51.236;6.742;2022-12-18T03:06:48;102398.72;;;-1.58;71.21
8699;BME280;4386;51.236;6.742;2022-12-18T03:07:57;102397.84;;;-1.58;70.64
8699;BME280;4386;51.236;6.742;2022-12-18T03:09:07;102404.78;;;-1.59;70.99
8699;BME280;4386;51.236;6.742;2022-12-18T03:10:14;102401.31;;;-1.59;71.11
8699;BME280;4386;51.236;6.742;2022-12-18T03:11:19;102392.66;;;-1.58;70.98
8699;BME280;4386;51.236;6.742;2022-12-18T03:12:58;102399.59;;;-1.59;71.25
8699;BME280;4386;51.236;6.742;2022-12-18T03:14:03;102391.78;;;-1.59;70.85
8699;BME280;4386;51.236;6.742;2022-12-18T03:15:10;102395.25;;;-1.60;70.99
8699;BME280;4386;51.236;6.742;2022-12-18T03:16:22;102398.72;;;-1.61;70.89
8699;BME280;4386;51.236;6.742;2022-12-18T03:17:27;102392.66;;;-1.60;70.86
8699;BME280;4386;51.236;6.742;2022-12-18T03:18:35;102391.78;;;-1.59;71.11
8699;BME280;4386;51.236;6.742;2022-12-18T03:19:38;102390.06;;;-1.60;70.94
8699;BME280;4386;51.236;6.742;2022-12-18T03:20:43;102388.34;;;-1.61;71.08
8699;BME280;4386;51.236;6.742;2022-12-18T03:21:47;102397.00;;;-1.59;71.00
8699;BME280;4386;51.236;6.742;2022-12-18T03:22:55;102390.06;;;-1.60;70.80
8699;BME280;4386;51.236;6.742;2022-12-18T03:23:59;102390.91;;;-1.59;70.96
8699;BME280;4386;51.236;6.742;2022-12-18T03:25:05;102387.44;;;-1.60;70.93
8699;BME280;4386;51.236;6.742;2022-12-18T03:26:10;102378.78;;;-1.60;71.12
8699;BME280;4386;51.236;6.742;2022-12-18T03:27:15;102383.13;;;-1.59;70.90
8699;BME280;4386;51.236;6.742;2022-12-18T03:28:21;102376.19;;;-1.59;70.76
8699;BME280;4386;51.236;6.742;2022-12-18T03:29:27;102371.88;;;-1.58;71.04
8699;BME280;4386;51.236;6.742;2022-12-18T03:30:32;102367.53;;;-1.58;70.90
8699;BME280;4386;51.236;6.742;2022-12-18T03:31:37;102365.81;;;-1.59;71.13
8699;BME280;4386;51.236;6.742;2022-12-18T03:32:44;102364.94;;;-1.58;71.18
8699;BME280;4386;51.236;6.742;2022-12-18T03:33:52;102375.34;;;-1.58;70.82
8699;BME280;4386;51.236;6.742;2022-12-18T03:34:58;102380.53;;;-1.58;70.96
8699;BME280;4386;51.236;6.742;2022-12-18T03:36:03;102376.19;;;-1.59;71.46
8699;BME280;4386;51.236;6.742;2022-12-18T03:37:06;102384.00;;;-1.59;71.23
8699;BME280;4386;51.236;6.742;2022-12-18T03:38:10;102384.00;;;-1.59;70.95
8699;BME280;4386;51.236;6.742;2022-12-18T03:39:12;102382.25;;;-1.58;71.04
8699;BME280;4386;51.236;6.742;2022-12-18T03:40:14;102392.66;;;-1.58;71.01
8699;BME280;4386;51.236;6.742;2022-12-18T03:41:21;102387.44;;;-1.60;71.49
8699;BME280;4386;51.236;6.742;2022-12-18T03:42:28;102385.75;;;-1.58;71.40
8699;BME280;4386;51.236;6.742;2022-12-18T03:43:41;102391.78;;;-1.55;70.76
8699;BME280;4386;51.236;6.742;2022-12-18T03:44:52;102382.25;;;-1.55;71.04
8699;BME280;4386;51.236;6.742;2022-12-18T03:46:06;102384.00;;;-1.55;70.73
8699;BME280;4386;51.236;6.742;2022-12-18T03:47:14;102382.25;;;-1.53;71.08
8699;BME280;4386;51.236;6.742;2022-12-18T03:48:20;102386.59;;;-1.55;71.12
8699;BME280;4386;51.236;6.742;2022-12-18T03:49:35;102382.25;;;-1.55;71.22
8699;BME280;4386;51.236;6.742;2022-12-18T03:50:51;102380.50;;;-1.53;70.89
8699;BME280;4386;51.236;6.742;2022-12-18T03:52:03;102377.91;;;-1.53;71.01
8699;BME280;4386;51.236;6.742;2022-12-18T03:53:14;102373.59;;;-1.54;71.02
8699;BME280;4386;51.236;6.742;2022-12-18T03:54:20;102379.63;;;-1.53;71.05
8699;BME280;4386;51.236;6.742;2022-12-18T03:55:22;102365.78;;;-1.55;71.22
8699;BME280;4386;51.236;6.742;2022-12-18T03:56:29;102365.78;;;-1.55;70.79
8699;BME280;4386;51.236;6.742;2022-12-18T03:57:32;102365.78;;;-1.55;71.10
8699;BME280;4386;51.236;6.742;2022-12-18T03:58:37;102369.25;;;-1.57;70.96
8699;BME280;4386;51.236;6.742;2022-12-18T03:59:55;102366.66;;;-1.55;71.17
8699;BME280;4386;51.236;6.742;2022-12-18T04:01:02;102371.88;;;-1.55;70.97
8699;BME280;4386;51.236;6.742;2022-12-18T04:02:06;102371.00;;;-1.55;71.02
8699;BME280;4386;51.236;6.742;2022-12-18T04:03:10;102372.72;;;-1.54;71.12
8699;BME280;4386;51.236;6.742;2022-12-18T04:04:12;102371.00;;;-1.55;70.96
8699;BME280;4386;51.236;6.742;2022-12-18T04:05:17;102370.13;;;-1.54;71.04
8699;BME280;4386;51.236;6.742;2022-12-18T04:06:19;102374.47;;;-1.55;70.94
8699;BME280;4386;51.236;6.742;2022-12-18T04:07:24;102366.66;;;-1.53;70.97
8699;BME280;4386;51.236;6.742;2022-12-18T04:08:26;102364.03;;;-1.53;71.35
8699;BME280;4386;51.236;6.742;2022-12-18T04:09:30;102364.91;;;-1.53;71.27
8699;BME280;4386;51.236;6.742;2022-12-18T04:10:33;102365.78;;;-1.52;70.94
8699;BME280;4386;51.236;6.742;2022-12-18T04:11:35;102371.00;;;-1.54;70.99
8699;BME280;4386;51.236;6.742;2022-12-18T04:12:37;102369.25;;;-1.53;71.08
8699;BME280;4386;51.236;6.742;2022-12-18T04:13:42;102362.34;;;-1.54;71.22
8699;BME280;4386;51.236;6.742;2022-12-18T04:14:44;102361.44;;;-1.53;71.06
8699;BME280;4386;51.236;6.742;2022-12-18T04:15:47;102358.00;;;-1.54;71.00
8699;BME280;4386;51.236;6.742;2022-12-18T04:16:49;102361.44;;;-1.53;71.10
8699;BME280;4386;51.236;6.742;2022-12-18T04:17:51;102366.66;;;-1.53;70.86
8699;BME280;4386;51.236;6.742;2022-12-18T04:18:53;102362.34;;;-1.54;70.99
8699;BME280;4386;51.236;6.742;2022-12-18T04:19:55;102362.34;;;-1.54;71.24
8699;BME280;4386;51.236;6.742;2022-12-18T04:20:57;102360.59;;;-1.54;70.82
8699;BME280;4386;51.236;6.742;2022-12-18T04:22:00;102354.53;;;-1.54;71.03
8699;BME280;4386;51.236;6.742;2022-12-18T04:23:01;102361.44;;;-1.53;71.03
8699;BME280;4386;51.236;6.742;2022-12-18T04:24:04;102356.25;;;-1.53;71.35
8699;BME280;4386;51.236;6.742;2022-12-18T04:25:06;102356.25;;;-1.53;71.05
8699;BME280;4386;51.236;6.742;2022-12-18T04:26:09;102355.38;;;-1.52;71.03
8699;BME280;4386;51.236;6.742;2022-12-18T04:27:11;102350.19;;;-1.52;71.05
8699;BME280;4386;51.236;6.742;2022-12-18T04:28:13;102352.81;;;-1.54;70.99
8699;BME280;4386;51.236;6.742;2022-12-18T04:29:16;102353.66;;;-1.53;71.02
8699;BME280;4386;51.236;6.742;2022-12-18T04:30:19;102351.94;;;-1.54;70.92
8699;BME280;4386;51.236;6.742;2022-12-18T04:31:20;102358.00;;;-1.54;71.00
8699;BME280;4386;51.236;6.742;2022-12-18T04:32:23;102356.25;;;-1.53;70.85
8699;BME280;4386;51.236;6.742;2022-12-18T04:33:25;102353.66;;;-1.53;70.85
8699;BME280;4386;51.236;6.742;2022-12-18T04:34:28;102355.41;;;-1.54;71.02
8699;BME280;4386;51.236;6.742;2022-12-18T04:35:32;102357.13;;;-1.54;70.83
8699;BME280;4386;51.236;6.742;2022-12-18T04:36:34;102356.25;;;-1.53;70.96
8699;BME280;4386;51.236;6.742;2022-12-18T04:37:36;102357.13;;;-1.53;71.16
8699;BME280;4386;51.236;6.742;2022-12-18T04:38:39;102356.28;;;-1.55;70.85
8699;BME280;4386;51.236;6.742;2022-12-18T04:39:47;102352.78;;;-1.52;70.98
8699;BME280;4386;51.236;6.742;2022-12-18T04:40:59;102353.66;;;-1.53;71.05
8699;BME280;4386;51.236;6.742;2022-12-18T04:42:01;102343.25;;;-1.53;70.59
8699;BME280;4386;51.236;6.742;2022-12-18T04:43:03;102350.19;;;-1.52;71.05
8699;BME280;4386;51.236;6.742;2022-12-18T04:44:06;102346.72;;;-1.53;70.92
8699;BME280;4386;51.236;6.742;2022-12-18T04:45:09;102348.44;;;-1.53;70.95
8699;BME280;4386;51.236;6.742;2022-12-18T04:46:12;102355.38;;;-1.52;70.76
8699;BME280;4386;51.236;6.742;2022-12-18T04:47:17;102347.59;;;-1.52;70.97
8699;BME280;4386;51.236;6.742;2022-12-18T04:48:20;102348.44;;;-1.53;70.93
8699;BME280;4386;51.236;6.742;2022-12-18T04:49:22;102348.44;;;-1.53;71.03
8699;BME280;4386;51.236;6.742;2022-12-18T04:50:24;102358.84;;;-1.53;70.91
8699;BME280;4386;51.236;6.742;2022-12-18T04:51:26;102351.06;;;-1.55;71.22
8699;BME280;4386;51.236;6.742;2022-12-18T04:52:28;102346.75;;;-1.54;70.88
8699;BME280;4386;51.236;6.742;2022-12-18T04:53:30;102346.75;;;-1.54;71.31
8699;BME280;4386;51.236;6.742;2022-12-18T04:54:32;102352.81;;;-1.54;70.82
8699;BME280;4386;51.236;6.742;2022-12-18T04:55:34;102351.94;;;-1.54;71.11
8699;BME280;4386;51.236;6.742;2022-12-18T04:56:37;102347.63;;;-1.54;70.92
8699;BME280;4386;51.236;6.742;2022-12-18T04:57:39;102352.81;;;-1.55;71.19
8699;BME280;4386;51.236;6.742;2022-12-18T04:58:43;102338.06;;;-1.55;71.15
8699;BME280;4386;51.236;6.742;2022-12-18T04:59:45;102339.81;;;-1.55;71.11
8699;BME280;4386;51.236;6.742;2022-12-18T05:00:49;102339.81;;;-1.55;71.00
8699;BME280;4386;51.236;6.742;2022-12-18T05:01:50;102329.41;;;-1.55;71.22
8699;BME280;4386;51.236;6.742;2022-12-18T05:02:53;102332.88;;;-1.55;70.90
8699;BME280;4386;51.236;6.742;2022-12-18T05:03:55;102332.03;;;-1.54;70.85
8699;BME280;4386;51.236;6.742;2022-12-18T05:04:58;102328.56;;;-1.54;71.20
8699;BME280;4386;51.236;6.742;2022-12-18T05:08:03;102314.69;;;-1.55;71.13
8699;BME280;4386;51.236;6.742;2022-12-18T05:09:06;102320.75;;;-1.58;70.81
8699;BME280;4386;51.236;6.742;2022-12-18T05:10:08;102325.97;;;-1.58;71.25
8699;BME280;4386;51.236;6.742;2022-12-18T05:11:12;102324.22;;;-1.59;70.98
8699;BME280;4386;51.236;6.742;2022-12-18T05:12:15;102327.69;;;-1.58;70.96
8699;BME280;4386;51.236;6.742;2022-12-18T05:13:17;102332.03;;;-1.59;70.85
8699;BME280;4386;51.236;6.742;2022-12-18T05:14:20;102327.66;;;-1.57;71.11
8699;BME280;4386;51.236;6.742;2022-12-18T05:15:30;102335.47;;;-1.57;71.40
8699;BME280;4386;51.236;6.742;2022-12-18T05:16:37;102333.75;;;-1.56;71.25
8699;BME280;4386;51.236;6.742;2022-12-18T05:17:39;102335.47;;;-1.57;71.02
8699;BME280;4386;51.236;6.742;2022-12-18T05:18:42;102335.47;;;-1.57;71.06
8699;BME280;4386;51.236;6.742;2022-12-18T05:19:46;102335.50;;;-1.58;71.13
8699;BME280;4386;51.236;6.742;2022-12-18T05:20:58;102331.16;;;-1.58;71.01
8699;BME280;4386;51.236;6.742;2022-12-18T05:22:01;102334.63;;;-1.59;71.49
8699;BME280;4386;51.236;6.742;2022-12-18T05:23:03;102330.28;;;-1.60;71.26
8699;BME280;4386;51.236;6.742;2022-12-18T05:24:06;102329.41;;;-1.59;71.19
8699;BME280;4386;51.236;6.742;2022-12-18T05:25:08;102332.03;;;-1.59;70.84
8699;BME280;4386;51.236;6.742;2022-12-18T05:26:15;102326.81;;;-1.60;71.14
8699;BME280;4386;51.236;6.742;2022-12-18T05:27:16;102329.41;;;-1.59;71.27
8699;BME280;4386;51.236;6.742;2022-12-18T05:28:21;102328.56;;;-1.61;71.11
8699;BME280;4386;51.236;6.742;2022-12-18T05:29:22;102325.09;;;-1.61;71.19
8699;BME280;4386;51.236;6.742;2022-12-18T05:30:25;102332.00;;;-1.60;71.08
8699;BME280;4386;51.236;6.742;2022-12-18T05:31:27;102331.16;;;-1.61;71.10
8699;BME280;4386;51.236;6.742;2022-12-18T05:32:34;102333.78;;;-1.61;70.98
8699;BME280;4386;51.236;6.742;2022-12-18T05:33:35;102332.88;;;-1.63;70.88
8699;BME280;4386;51.236;6.742;2022-12-18T05:34:39;102338.09;;;-1.63;71.01
8699;BME280;4386;51.236;6.742;2022-12-18T05:35:40;102348.47;;;-1.63;71.26
8699;BME280;4386;51.236;6.742;2022-12-18T05:36:43;102341.53;;;-1.64;71.18
8699;BME280;4386;51.236;6.742;2022-12-18T05:37:44;102349.34;;;-1.64;71.48
8699;BME280;4386;51.236;6.742;2022-12-18T05:38:47;102351.06;;;-1.63;70.99
8699;BME280;4386;51.236;6.742;2022-12-18T05:39:49;102343.28;;;-1.63;71.19
8699;BME280;4386;51.236;6.742;2022-12-18T05:40:52;102354.53;;;-1.62;71.19
8699;BME280;4386;51.236;6.742;2022-12-18T05:41:54;102350.22;;;-1.63;70.98
8699;BME280;4386;51.236;6.742;2022-12-18T05:42:56;102342.41;;;-1.63;71.03
8699;BME280;4386;51.236;6.742;2022-12-18T05:43:58;102348.47;;;-1.63;71.03
8699;BME280;4386;51.236;6.742;2022-12-18T05:45:01;102360.63;;;-1.62;71.30
8699;BME280;4386;51.236;6.742;2022-12-18T05:46:04;102347.59;;;-1.63;71.30
8699;BME280;4386;51.236;6.742;2022-12-18T05:47:07;102352.81;;;-1.63;71.51
8699;BME280;4386;51.236;6.742;2022-12-18T05:48:10;102355.44;;;-1.65;71.38
8699;BME280;4386;51.236;6.742;2022-12-18T05:49:13;102362.34;;;-1.64;71.18
8699;BME280;4386;51.236;6.742;2022-12-18T05:50:15;102360.63;;;-1.65;71.66
8699;BME280;4386;51.236;6.742;2022-12-18T05:51:19;102366.69;;;-1.64;71.35
8699;BME280;4386;51.236;6.742;2022-12-18T05:52:21;102367.53;;;-1.64;71.28
8699;BME280;4386;51.236;6.742;2022-12-18T05:53:25;102371.00;;;-1.65;71.25